createdAt,value
2023-02-16T00:01:27.862Z,8.98
2023-02-16T00:03:59.128Z,8.95
2023-02-16T00:06:30.196Z,8.89
2023-02-16T00:08:58.444Z,8.94
2023-02-16T00:11:49.360Z,8.90
2023-02-16T00:14:17.890Z,8.96
2023-02-16T00:16:45.902Z,9.04
2023-02-16T00:19:20.654Z,9.02
2023-02-16T00:21:51.968Z,8.95
2023-02-16T00:24:20.926Z,8.94
2023-02-16T00:26:50.273Z,9.04
2023-02-16T00:29:23.985Z,8.99
2023-02-16T00:31:52.946Z,9.04
2023-02-16T00:34:33.571Z,9.09
2023-02-16T00:37:05.527Z,8.87
2023-02-16T00:39:33.937Z,8.92
2023-02-16T00:42:04.633Z,8.87
2023-02-16T00:44:37.124Z,8.83
2023-02-16T00:47:18.745Z,8.84
2023-02-16T00:49:46.926Z,8.74
2023-02-16T00:52:34.472Z,8.86
2023-02-16T00:55:04.177Z,8.84
2023-02-16T00:57:35.076Z,8.81
2023-02-16T01:00:06.445Z,8.73
2023-02-16T01:02:34.681Z,8.87
2023-02-16T01:05:02.919Z,8.92
2023-02-16T01:07:50.822Z,8.85
2023-02-16T01:10:37.439Z,8.94
2023-02-16T01:13:06.110Z,8.86
2023-02-16T01:15:36.201Z,8.91
2023-02-16T01:18:04.616Z,8.75
2023-02-16T01:20:38.456Z,8.77
2023-02-16T01:23:10.999Z,8.70
2023-02-16T01:25:43.512Z,8.90
2023-02-16T01:28:19.672Z,8.91
2023-02-16T01:30:47.908Z,8.89
2023-02-16T01:33:16.227Z,8.92
2023-02-16T01:35:44.260Z,8.68
2023-02-16T01:38:18.883Z,8.78
2023-02-16T01:40:57.559Z,8.81
2023-02-16T01:43:30.522Z,8.68
2023-02-16T01:46:03.507Z,8.76
2023-02-16T01:48:32.889Z,8.75
2023-02-16T01:51:08.179Z,8.67
2023-02-16T01:53:43.144Z,8.72
2023-02-16T01:56:33.627Z,8.67
2023-02-16T01:59:05.693Z,8.57
2023-02-16T02:01:42.636Z,8.61
2023-02-16T02:04:39.377Z,8.59
2023-02-16T02:07:08.065Z,8.53
2023-02-16T02:09:43.051Z,8.47
2023-02-16T02:12:20.172Z,8.44
2023-02-16T02:14:49.293Z,8.41
2023-02-16T02:17:21.516Z,8.34
2023-02-16T02:20:00.244Z,8.43
2023-02-16T02:23:22.024Z,8.35
2023-02-16T02:26:25.318Z,8.43
2023-02-16T02:29:07.416Z,8.41
2023-02-16T02:31:48.787Z,8.40
2023-02-16T02:34:25.253Z,8.34
2023-02-16T02:37:05.253Z,8.11
2023-02-16T02:39:41.055Z,8.16
2023-02-16T02:42:14.807Z,8.12
2023-02-16T02:44:54.436Z,8.17
2023-02-16T02:47:22.894Z,7.95
2023-02-16T02:49:52.563Z,8.06
2023-02-16T02:52:20.937Z,7.99
2023-02-16T02:55:08.226Z,7.97
2023-02-16T02:58:00.474Z,8.15
2023-02-16T03:00:44.034Z,8.19
2023-02-16T03:03:17.554Z,8.00
2023-02-16T03:05:49.109Z,8.04
2023-02-16T03:08:19.889Z,8.03
2023-02-16T03:11:08.840Z,8.09
2023-02-16T03:13:40.910Z,8.12
2023-02-16T03:16:14.439Z,8.05
2023-02-16T03:19:02.126Z,8.34
2023-02-16T03:21:48.380Z,8.19
2023-02-16T03:24:39.449Z,8.22
2023-02-16T03:27:26.618Z,8.28
2023-02-16T03:29:57.059Z,7.94
2023-02-16T03:32:26.653Z,8.12
2023-02-16T03:34:54.850Z,8.10
2023-02-16T03:37:22.881Z,8.16
2023-02-16T03:40:09.810Z,8.25
2023-02-16T03:42:37.895Z,8.17
2023-02-16T03:45:07.346Z,8.26
2023-02-16T03:47:37.130Z,8.20
2023-02-16T03:50:06.358Z,8.16
2023-02-16T03:52:34.387Z,8.17
2023-02-16T03:55:02.577Z,8.29
2023-02-16T03:57:30.754Z,8.21
2023-02-16T03:59:59.448Z,8.26
2023-02-16T04:02:28.904Z,8.23
2023-02-16T04:04:58.500Z,8.32
2023-02-16T04:07:26.656Z,8.30
2023-02-16T04:09:54.743Z,8.30
2023-02-16T04:12:37.973Z,8.19
2023-02-16T04:15:08.370Z,8.18
2023-02-16T04:17:36.559Z,8.37
2023-02-16T04:20:07.110Z,8.38
2023-02-16T04:22:34.966Z,8.42
2023-02-16T04:25:03.129Z,8.42
2023-02-16T04:27:31.148Z,8.32
2023-02-16T04:29:59.550Z,8.36
2023-02-16T04:32:27.661Z,8.36
2023-02-16T04:34:55.984Z,8.41
2023-02-16T04:37:25.754Z,8.45
2023-02-16T04:39:53.841Z,8.44
2023-02-16T04:42:21.933Z,8.50
2023-02-16T04:44:50.167Z,8.52
2023-02-16T04:47:18.389Z,8.56
2023-02-16T04:49:48.091Z,8.51
2023-02-16T04:52:17.965Z,8.47
2023-02-16T04:54:47.368Z,8.62
2023-02-16T04:57:15.569Z,8.61
2023-02-16T04:59:43.536Z,8.60
2023-02-16T05:02:11.653Z,8.52
2023-02-16T05:04:39.741Z,8.52
2023-02-16T05:07:07.779Z,8.43
2023-02-16T05:09:35.845Z,8.55
2023-02-16T05:12:22.900Z,8.62
2023-02-16T05:14:51.470Z,8.66
2023-02-16T05:17:21.358Z,8.60
2023-02-16T05:19:51.118Z,8.70
2023-02-16T05:22:19.735Z,8.74
2023-02-16T05:24:48.108Z,8.78
2023-02-16T05:27:19.350Z,8.76
2023-02-16T05:29:47.761Z,8.76
2023-02-16T05:32:16.328Z,8.75
2023-02-16T05:34:45.598Z,8.73
2023-02-16T05:37:13.843Z,8.67
2023-02-16T05:39:41.853Z,8.51
2023-02-16T05:42:10.325Z,8.59
2023-02-16T05:44:39.854Z,8.51
2023-02-16T05:47:07.958Z,8.58
2023-02-16T05:49:35.981Z,8.55
2023-02-16T05:52:04.235Z,8.66
2023-02-16T05:54:32.077Z,8.54
2023-02-16T05:57:00.111Z,8.70
2023-02-16T05:59:28.104Z,8.75
2023-02-16T06:01:57.528Z,8.65
2023-02-16T06:04:25.508Z,8.82
2023-02-16T06:06:53.574Z,8.87
2023-02-16T06:09:21.758Z,8.75
2023-02-16T06:11:49.745Z,8.85
2023-02-16T06:14:20.192Z,8.80
2023-02-16T06:16:50.044Z,8.84
2023-02-16T06:19:20.688Z,8.64
2023-02-16T06:21:49.391Z,8.58
2023-02-16T06:24:19.630Z,8.59
2023-02-16T06:26:47.560Z,8.75
2023-02-16T06:29:15.423Z,8.65
2023-02-16T06:31:43.478Z,8.65
2023-02-16T06:34:11.435Z,8.56
2023-02-16T06:36:42.525Z,8.57
2023-02-16T06:39:11.298Z,8.59
2023-02-16T06:41:40.514Z,8.69
2023-02-16T06:44:12.409Z,8.70
2023-02-16T06:46:40.955Z,8.59
2023-02-16T06:49:08.990Z,8.49
2023-02-16T06:51:36.958Z,8.57
2023-02-16T06:54:06.495Z,8.56
2023-02-16T06:56:36.746Z,8.54
2023-02-16T06:59:06.602Z,8.67
2023-02-16T07:01:35.289Z,8.57
2023-02-16T07:04:03.596Z,8.60
2023-02-16T07:06:32.181Z,8.64
2023-02-16T07:09:00.725Z,8.58
2023-02-16T07:11:30.210Z,8.60
2023-02-16T07:13:58.331Z,8.71
2023-02-16T07:16:26.436Z,8.60
2023-02-16T07:18:54.854Z,8.64
2023-02-16T07:21:23.438Z,8.73
2023-02-16T07:23:52.172Z,8.55
2023-02-16T07:26:20.444Z,8.73
2023-02-16T07:28:50.063Z,8.72
2023-02-16T07:31:18.504Z,8.83
2023-02-16T07:33:47.272Z,8.81
2023-02-16T07:36:15.727Z,8.82
2023-02-16T07:38:43.875Z,8.84
2023-02-16T07:41:12.487Z,8.89
2023-02-16T07:43:42.916Z,8.84
2023-02-16T07:46:12.627Z,8.94
2023-02-16T07:48:40.672Z,9.00
2023-02-16T07:51:08.949Z,8.84
2023-02-16T07:53:37.062Z,8.96
2023-02-16T07:56:05.720Z,8.94
2023-02-16T07:58:33.789Z,8.93
2023-02-16T08:01:09.538Z,8.87
2023-02-16T08:03:39.698Z,8.96
2023-02-16T08:06:09.061Z,8.88
2023-02-16T08:08:37.760Z,9.00
2023-02-16T08:11:11.232Z,9.00
2023-02-16T08:13:39.326Z,9.25
2023-02-16T08:16:11.238Z,9.21
2023-02-16T08:18:42.365Z,9.27
2023-02-16T08:21:14.838Z,9.36
2023-02-16T08:23:47.479Z,9.35
2023-02-16T08:26:17.138Z,9.35
2023-02-16T08:28:47.080Z,9.44
2023-02-16T08:31:16.980Z,9.39
2023-02-16T08:33:47.682Z,9.42
2023-02-16T08:36:19.692Z,9.38
2023-02-16T08:38:50.181Z,9.44
2023-02-16T08:41:18.642Z,9.44
2023-02-16T08:43:46.877Z,9.17
2023-02-16T08:46:15.442Z,9.38
2023-02-16T08:48:43.895Z,9.33
2023-02-16T08:51:17.677Z,9.22
2023-02-16T08:53:46.749Z,9.09
2023-02-16T08:56:16.858Z,9.30
2023-02-16T08:58:44.928Z,9.20
2023-02-16T09:01:15.400Z,9.30
2023-02-16T09:03:45.138Z,9.26
2023-02-16T09:06:16.338Z,9.32
2023-02-16T09:08:46.639Z,9.37
2023-02-16T09:11:16.625Z,9.32
2023-02-16T09:13:44.724Z,9.41
2023-02-16T09:16:15.783Z,9.16
2023-02-16T09:18:44.934Z,9.19
2023-02-16T09:21:17.102Z,9.28
2023-02-16T09:23:48.108Z,9.32
2023-02-16T09:26:17.128Z,9.36
2023-02-16T09:28:47.279Z,9.40
2023-02-16T09:31:17.165Z,9.48
2023-02-16T09:33:45.710Z,9.51
2023-02-16T09:36:15.160Z,9.32
2023-02-16T09:38:43.562Z,9.24
2023-02-16T09:41:29.293Z,9.33
2023-02-16T09:44:00.907Z,9.18
2023-02-16T09:46:31.518Z,9.40
2023-02-16T09:49:02.361Z,9.37
2023-02-16T09:51:37.417Z,9.54
2023-02-16T09:54:21.413Z,9.59
2023-02-16T09:56:56.890Z,9.51
2023-02-16T09:59:43.155Z,9.66
2023-02-16T10:02:31.014Z,9.58
2023-02-16T10:05:17.399Z,9.81
2023-02-16T10:07:57.515Z,9.53
2023-02-16T10:10:31.363Z,9.72
2023-02-16T10:13:05.848Z,9.71
2023-02-16T10:15:36.290Z,9.76
2023-02-16T10:18:10.036Z,9.69
2023-02-16T10:20:39.224Z,9.71
2023-02-16T10:23:23.119Z,9.61
2023-02-16T10:25:59.337Z,9.57
2023-02-16T10:28:38.244Z,9.54
2023-02-16T10:31:15.845Z,9.53
2023-02-16T10:33:46.703Z,9.77
2023-02-16T10:36:28.959Z,9.87
2023-02-16T10:39:08.719Z,9.70
2023-02-16T10:41:42.191Z,9.74
2023-02-16T10:44:16.760Z,9.56
2023-02-16T10:46:48.981Z,9.50
2023-02-16T10:49:18.593Z,9.80
2023-02-16T10:51:50.660Z,9.77
2023-02-16T10:54:23.960Z,9.70
2023-02-16T10:56:54.493Z,9.79
2023-02-16T10:59:24.375Z,9.77
2023-02-16T11:01:54.594Z,9.82
2023-02-16T11:04:38.476Z,9.86
2023-02-16T11:07:09.285Z,9.88
2023-02-16T11:09:40.184Z,9.93
2023-02-16T11:12:28.372Z,9.87
2023-02-16T11:15:01.253Z,9.90
2023-02-16T11:17:29.820Z,9.92
2023-02-16T11:20:02.150Z,9.83
2023-02-16T11:22:33.630Z,10.05
2023-02-16T11:25:30.298Z,10.00
2023-02-16T11:28:02.038Z,10.02
2023-02-16T11:30:34.917Z,10.09
2023-02-16T11:33:07.084Z,10.07
2023-02-16T11:35:43.828Z,10.14
2023-02-16T11:38:28.510Z,10.18
2023-02-16T11:40:59.792Z,10.06
2023-02-16T11:43:30.345Z,10.02
2023-02-16T11:46:01.267Z,10.16
2023-02-16T11:48:32.668Z,10.24
2023-02-16T11:51:03.499Z,10.08
2023-02-16T11:53:34.060Z,10.19
2023-02-16T11:56:31.374Z,10.30
2023-02-16T11:59:16.912Z,10.21
2023-02-16T12:01:59.116Z,10.11
2023-02-16T12:04:48.977Z,10.13
2023-02-16T12:07:27.643Z,10.13
2023-02-16T12:10:06.211Z,10.17
2023-02-16T12:12:48.556Z,10.14
2023-02-16T12:15:25.997Z,10.02
2023-02-16T12:18:16.304Z,10.11
2023-02-16T12:20:51.912Z,9.86
2023-02-16T12:23:34.729Z,10.09
2023-02-16T12:26:16.948Z,10.30
2023-02-16T12:28:51.875Z,10.36
2023-02-16T12:31:27.062Z,10.20
2023-02-16T12:34:03.882Z,10.14
2023-02-16T12:36:47.411Z,10.26
2023-02-16T12:39:23.371Z,10.18
2023-02-16T12:42:02.005Z,10.22
2023-02-16T12:44:37.382Z,10.28
2023-02-16T12:47:12.886Z,10.47
2023-02-16T12:49:48.688Z,10.41
2023-02-16T12:52:29.492Z,10.55
2023-02-16T12:55:04.294Z,10.74
2023-02-16T12:57:33.332Z,10.96
2023-02-16T13:00:11.501Z,11.02
2023-02-16T13:02:44.603Z,11.02
2023-02-16T13:05:19.304Z,11.14
2023-02-16T13:07:50.175Z,11.03
2023-02-16T13:10:24.323Z,11.17
2023-02-16T13:12:58.956Z,11.24
2023-02-16T13:15:36.591Z,11.17
2023-02-16T13:18:11.950Z,11.07
2023-02-16T13:20:42.555Z,11.16
2023-02-16T13:23:51.276Z,11.34
2023-02-16T13:26:33.652Z,11.41
2023-02-16T13:29:23.261Z,11.30
2023-02-16T13:32:09.418Z,11.27
2023-02-16T13:35:14.744Z,11.35
2023-02-16T13:38:06.070Z,11.47
2023-02-16T13:41:06.694Z,11.46
2023-02-16T13:43:37.799Z,11.54
2023-02-16T13:46:12.268Z,11.43
2023-02-16T13:48:49.717Z,11.64
2023-02-16T13:51:20.805Z,11.68
2023-02-16T13:53:55.815Z,11.73
2023-02-16T13:56:36.268Z,11.86
2023-02-16T13:59:41.682Z,11.97
2023-02-16T14:02:14.139Z,11.88
2023-02-16T14:05:04.247Z,11.89
2023-02-16T14:07:36.013Z,11.76
2023-02-16T14:10:04.653Z,11.77
2023-02-16T14:12:38.350Z,11.80
2023-02-16T14:15:19.635Z,11.69
2023-02-16T14:17:48.000Z,11.45
2023-02-16T14:20:38.542Z,11.66
2023-02-16T14:23:09.618Z,11.68
2023-02-16T14:25:40.247Z,11.60
2023-02-16T14:28:56.204Z,11.51
2023-02-16T14:31:26.269Z,11.42
2023-02-16T14:34:04.466Z,11.27
2023-02-16T14:36:34.813Z,11.36
2023-02-16T14:39:03.656Z,11.52
2023-02-16T14:41:34.177Z,11.68
2023-02-16T14:44:34.474Z,11.44
2023-02-16T14:47:19.573Z,11.51
2023-02-16T14:50:13.310Z,11.33
2023-02-16T14:53:09.640Z,11.20
2023-02-16T14:56:10.391Z,11.38
2023-02-16T14:58:48.616Z,11.37
2023-02-16T15:01:19.143Z,11.44
2023-02-16T15:03:48.827Z,11.39
2023-02-16T15:06:27.032Z,11.42
2023-02-16T15:08:59.919Z,11.14
2023-02-16T15:11:34.258Z,11.16
2023-02-16T15:14:11.141Z,11.26
2023-02-16T15:16:42.125Z,11.08
2023-02-16T15:19:18.066Z,11.08
2023-02-16T15:21:46.160Z,11.21
2023-02-16T15:24:25.225Z,11.12
2023-02-16T15:27:01.676Z,10.80
2023-02-16T15:29:30.517Z,10.81
2023-02-16T15:32:00.553Z,10.65
2023-02-16T15:34:33.377Z,10.68
2023-02-16T15:37:03.247Z,10.70
2023-02-16T15:39:48.255Z,10.66
2023-02-16T15:42:23.714Z,10.59
2023-02-16T15:44:52.123Z,10.59
2023-02-16T15:47:24.835Z,10.68
2023-02-16T15:49:53.954Z,10.59
2023-02-16T15:52:29.842Z,10.68
2023-02-16T15:55:01.735Z,10.78
2023-02-16T15:57:32.297Z,10.86
2023-02-16T16:00:03.885Z,10.94
2023-02-16T16:02:43.745Z,10.83
2023-02-16T16:05:23.993Z,10.96
2023-02-16T16:07:52.836Z,10.87
2023-02-16T16:10:27.024Z,10.87
2023-02-16T16:12:58.970Z,10.91
2023-02-16T16:15:30.278Z,10.94
2023-02-16T16:18:00.928Z,10.89
2023-02-16T16:20:31.396Z,10.74
2023-02-16T16:23:05.038Z,10.74
2023-02-16T16:25:43.483Z,10.67
2023-02-16T16:28:14.447Z,10.51
2023-02-16T16:30:45.188Z,10.29
2023-02-16T16:33:17.113Z,10.26
2023-02-16T16:35:47.035Z,10.10
2023-02-16T16:38:27.239Z,10.21
2023-02-16T16:41:00.125Z,10.23
2023-02-16T16:43:30.878Z,10.40
2023-02-16T16:46:13.870Z,10.34
2023-02-16T16:48:45.073Z,10.19
2023-02-16T16:51:15.630Z,10.14
2023-02-16T16:53:53.318Z,10.10
2023-02-16T16:56:23.591Z,10.32
2023-02-16T16:58:53.792Z,10.18
2023-02-16T17:01:22.558Z,10.16
2023-02-16T17:03:50.707Z,10.17
2023-02-16T17:06:19.944Z,10.22
2023-02-16T17:08:49.631Z,10.17
2023-02-16T17:11:25.826Z,10.16
2023-02-16T17:13:57.084Z,10.33
2023-02-16T17:16:29.173Z,10.42
2023-02-16T17:18:57.506Z,10.37
2023-02-16T17:21:25.914Z,10.28
2023-02-16T17:23:54.324Z,10.38
2023-02-16T17:26:24.931Z,10.16
2023-02-16T17:28:53.238Z,10.23
2023-02-16T17:31:21.484Z,10.37
2023-02-16T17:33:50.174Z,10.36
2023-02-16T17:36:20.703Z,10.28
2023-02-16T17:38:50.397Z,10.15
2023-02-16T17:41:22.048Z,10.14
2023-02-16T17:43:51.932Z,9.98
2023-02-16T17:46:21.796Z,10.16
2023-02-16T17:48:53.569Z,10.11
2023-02-16T17:51:25.592Z,10.16
2023-02-16T17:53:55.304Z,10.13
2023-02-16T18:00:19.244Z,10.04
2023-02-16T18:02:48.243Z,10.14
2023-02-16T18:05:17.145Z,10.25
2023-02-16T18:07:45.460Z,10.14
2023-02-16T18:10:32.834Z,10.14
2023-02-16T18:13:01.413Z,9.96
2023-02-16T18:15:31.341Z,10.01
2023-02-16T18:17:59.698Z,9.87
2023-02-16T18:20:28.703Z,9.96
2023-02-16T18:22:57.114Z,9.93
2023-02-16T18:25:25.349Z,10.01
2023-02-16T18:27:53.847Z,9.97
2023-02-16T18:30:22.869Z,10.14
2023-02-16T18:32:52.716Z,10.09
2023-02-16T18:35:21.361Z,10.12
2023-02-16T18:37:50.943Z,10.10
2023-02-16T18:40:21.061Z,10.07
2023-02-16T18:42:49.298Z,10.11
2023-02-16T18:45:18.295Z,10.20
2023-02-16T18:47:46.390Z,10.16
2023-02-16T18:50:16.360Z,10.20
2023-02-16T18:52:45.035Z,10.13
2023-02-16T18:55:15.456Z,9.98
2023-02-16T18:57:43.954Z,10.09
2023-02-16T19:00:15.182Z,10.15
2023-02-16T19:02:44.066Z,10.06
2023-02-16T19:05:13.146Z,10.08
2023-02-16T19:07:43.814Z,10.08
2023-02-16T19:10:12.882Z,10.23
2023-02-16T19:12:41.984Z,10.16
2023-02-16T19:15:11.904Z,10.03
2023-02-16T19:17:40.268Z,10.15
2023-02-16T19:20:12.368Z,10.15
2023-02-16T19:22:41.253Z,10.28
2023-02-16T19:25:11.709Z,10.19
2023-02-16T19:27:39.867Z,10.22
2023-02-16T19:30:10.059Z,10.13
2023-02-16T19:32:41.051Z,10.11
2023-02-16T19:35:11.661Z,10.21
2023-02-16T19:37:40.528Z,10.36
2023-02-16T19:40:13.869Z,10.10
2023-02-16T19:42:42.539Z,10.17
2023-02-16T19:45:11.816Z,10.29
2023-02-16T19:47:40.427Z,10.26
2023-02-16T19:50:09.024Z,10.31
2023-02-16T19:52:37.204Z,10.36
2023-02-16T19:55:06.549Z,10.25
2023-02-16T19:57:35.912Z,10.27
2023-02-16T20:00:05.881Z,10.41
2023-02-16T20:02:40.273Z,10.38
2023-02-16T20:05:09.964Z,10.45
2023-02-16T20:07:38.079Z,10.38
2023-02-16T20:10:08.168Z,10.51
2023-02-16T20:12:37.694Z,10.50
2023-02-16T20:15:08.100Z,10.35
2023-02-16T20:17:36.417Z,10.22
2023-02-16T20:20:05.669Z,10.24
2023-02-16T20:22:34.193Z,10.32
2023-02-16T20:25:02.627Z,10.51
2023-02-16T20:27:31.282Z,10.28
2023-02-16T20:30:03.160Z,10.41
2023-02-16T20:32:31.592Z,10.51
2023-02-16T20:35:00.237Z,10.50
2023-02-16T20:37:28.357Z,10.56
2023-02-16T20:39:56.782Z,10.62
2023-02-16T20:42:24.999Z,10.61
2023-02-16T20:44:53.551Z,10.50
2023-02-16T20:47:23.201Z,10.69
2023-02-16T20:49:51.590Z,10.60
2023-02-16T20:52:20.468Z,10.47
2023-02-16T20:54:49.096Z,10.33
2023-02-16T20:57:26.482Z,10.35
2023-02-16T20:59:55.991Z,10.44
2023-02-16T21:02:26.062Z,10.54
2023-02-16T21:04:54.582Z,10.55
2023-02-16T21:07:23.166Z,10.48
2023-02-16T21:09:51.377Z,10.56
2023-02-16T21:12:19.464Z,10.63
2023-02-16T21:14:47.753Z,10.59
2023-02-16T21:17:15.751Z,10.46
2023-02-16T21:19:45.693Z,10.34
2023-02-16T21:22:13.692Z,10.39
2023-02-16T21:24:43.283Z,10.41
2023-02-16T21:27:12.711Z,10.51
2023-02-16T21:29:41.014Z,10.50
2023-02-16T21:32:09.215Z,10.40
2023-02-16T21:34:38.052Z,10.17
2023-02-16T21:37:07.977Z,10.36
2023-02-16T21:39:53.488Z,10.46
2023-02-16T21:42:21.388Z,10.50
2023-02-16T21:45:10.394Z,10.43
2023-02-16T21:47:56.014Z,10.42
2023-02-16T21:50:24.802Z,10.48
2023-02-16T21:52:54.795Z,10.52
2023-02-16T21:55:41.296Z,10.53
2023-02-16T21:58:10.751Z,10.34
2023-02-16T22:00:39.365Z,10.34
2023-02-16T22:03:08.960Z,10.53
2023-02-16T22:05:37.617Z,10.50
2023-02-16T22:08:07.627Z,10.55
2023-02-16T22:10:35.934Z,10.46
2023-02-16T22:13:04.353Z,10.45
2023-02-16T22:15:32.625Z,10.39
2023-02-16T22:18:00.559Z,10.47
2023-02-16T22:20:29.072Z,10.55
2023-02-16T22:22:57.515Z,10.52
2023-02-16T22:25:27.096Z,10.54
2023-02-16T22:27:55.169Z,10.72
2023-02-16T22:30:23.481Z,10.49
2023-02-16T22:32:51.998Z,10.47
2023-02-16T22:35:20.044Z,10.51
2023-02-16T22:37:48.119Z,10.27
2023-02-16T22:40:16.671Z,10.37
2023-02-16T22:42:46.251Z,10.34
2023-02-16T22:45:14.271Z,10.36
2023-02-16T22:47:42.825Z,10.38
2023-02-16T22:50:12.711Z,10.37
2023-02-16T22:52:40.682Z,10.26
2023-02-16T22:55:09.838Z,10.39
2023-02-16T22:57:38.947Z,10.29
2023-02-16T23:00:12.933Z,10.35
2023-02-16T23:02:41.044Z,10.32
2023-02-16T23:05:09.448Z,10.35
2023-02-16T23:07:37.566Z,10.38
2023-02-16T23:10:06.860Z,10.43
2023-02-16T23:12:35.127Z,10.34
2023-02-16T23:15:03.733Z,10.39
2023-02-16T23:17:33.416Z,10.37
2023-02-16T23:20:01.473Z,10.48
2023-02-16T23:22:30.810Z,10.42
2023-02-16T23:25:13.930Z,10.36
2023-02-16T23:27:41.983Z,10.40
2023-02-16T23:30:11.710Z,10.51
2023-02-16T23:32:41.319Z,10.55
2023-02-16T23:35:09.313Z,10.35
2023-02-16T23:37:38.502Z,10.28
2023-02-16T23:40:08.047Z,10.44
2023-02-16T23:42:36.447Z,10.39
2023-02-16T23:45:05.376Z,10.35
2023-02-16T23:47:33.433Z,10.50
2023-02-16T23:50:02.820Z,10.38
2023-02-16T23:52:30.768Z,10.42
2023-02-16T23:54:58.664Z,10.53
2023-02-16T23:57:26.551Z,10.41
2023-02-16T23:59:54.604Z,10.39
